Weather observations for the past three days for
Portland Municipal Airport
Imperial (Metric)
Date Time (edt) Wind (mph) Vis. (mi.) Weather Sky Cond. Temperature (ºF) Relative Humidity Wind Chill (°F) Heat Index (°F) Pressure Precipitation (in)
Air Dwpt 6 hour altimeter (in) sea level (mb) 1 hr 3 hr 6 hr
Max. Min.
07 14:55 NW 12 G 17 10.00 Partly Cloudy SCT065 57.6 20.8 24% 29.95 0.0
07 14:35 W 8 7.00 Partly Cloudy SCT055 57.2 22.5 26% 29.95 0.0
07 14:15 W 8 10.00 Partly Cloudy SCT055 56.5 21.6 26% 29.96 0.0
07 13:55 W 7 G 23 7.00 Partly Cloudy SCT055 56.1 21.9 56.5 42.8 26% 29.97 0.0
07 13:35 NW 9 G 17 10.00 Fair CLR 55.2 20.1 25% 29.98 0.0
07 13:15 NW 10 G 20 10.00 Fair CLR 55 22.8 29% 29.98 0.0
07 12:55 NW 15 G 21 7.00 Fair CLR 54.3 20.7 27% 29.98 0.0
07 12:35 NW 9 G 21 10.00 Fair CLR 54 19.6 26% 29.99 0.0
07 11:55 NW 12 G 17 10.00 Fair CLR 52.9 20.7 28% 29.99 0.0
07 11:35 NW 10 G 20 10.00 Fair CLR 52.7 21.6 30% 29.99 0.0
07 11:15 W 13 G 22 10.00 Fair CLR 51.3 22.8 33% 29.99 0.0
07 10:55 W 9 7.00 Fair CLR 51.1 21.9 32% 29.99 0.0
07 10:35 W 13 G 21 10.00 Fair CLR 50 21.9 33% 46 29.99 0.0
07 10:15 W 14 10.00 Fair CLR 49.3 22.3 35% 45 29.99 0.0
07 09:55 W 8 10.00 Fair CLR 48.4 21.9 35% 45 29.99 0.0
07 09:35 W 8 10.00 Fair CLR 47.5 23.4 39% 44 29.99 0.0
07 09:15 W 5 10.00 Fair CLR 46.8 24.8 42% 45 29.98 0.0
07 08:55 W 8 10.00 Fair CLR 45.7 25.7 46% 42 29.98 0.0
07 08:35 W 5 10.00 Fair CLR 45 25.5 47% 43 29.98 0.0
07 08:15 W 6 10.00 Fair CLR 43.7 25.7 49% 41 29.98 0.0
07 07:55 W 3 10.00 Fair CLR 42.8 25.9 45.7 40.1 51% 29.98 0.0
07 07:35 W 3 10.00 Fair CLR 42.1 26.6 54% 29.98 0.0
07 07:15 W 5 7.00 Fair CLR 41.7 25.9 53% 39 29.98 0.0
07 06:55 W 5 7.00 Fair CLR 41 25.9 55% 38 29.97 0.0
07 06:35 W 3 10.00 Fair CLR 41 26.1 55% 29.97 0.0
07 06:15 W 3 10.00 Fair CLR 40.3 26.6 58% 29.97 0.0
07 05:55 W 3 10.00 Fair CLR 40.6 26.8 58% 29.97 0.0
07 05:35 W 3 10.00 Fair CLR 40.6 27.1 59% 29.97 0.0
07 05:15 W 5 10.00 Fair CLR 41.5 27.3 57% 39 29.97 0.0
07 04:55 W 3 10.00 Fair CLR 41.5 27.7 58% 29.97 0.0
07 04:35 Calm 10.00 Fair CLR 41.7 27.5 57% 29.96 0.0
07 04:15 Calm 10.00 Fair CLR 42.4 27.5 56% 29.96 0.0
07 03:55 W 3 10.00 Fair CLR 43 27.7 55% 29.96 0.0
07 03:35 Calm 10.00 Fair CLR 43.9 27 51% 29.96 0.0
07 03:15 W 3 10.00 Fair CLR 44.1 27.3 52% 29.96 0.0
07 02:55 NW 3 10.00 Fair CLR 45 26.4 48% 29.96 0.0
07 02:35 Calm 10.00 Fair CLR 45.5 27.1 49% 29.97 0.0
07 02:15 W 5 10.00 Fair CLR 45.3 27.7 50% 43 29.97 0.0
07 01:55 W 5 10.00 Fair CLR 45.5 29.5 54.7 45 54% 44 29.97 0.0
07 01:35 W 3 10.00 Fair CLR 45.5 30.9 57% 29.97 0.0
07 01:15 W 5 10.00 Fair CLR 46.6 30.2 53% 45 29.97 0.0
07 00:55 W 6 10.00 Fair CLR 46 30.7 55% 44 29.96 0.0
07 00:35 W 6 10.00 Fair CLR 47.1 30.7 53% 45 29.97 0.0
07 00:15 W 7 10.00 Fair CLR 47.8 30.7 52% 45 29.96 0.0
06 23:55 W 6 10.00 Fair CLR 47.5 30.9 53% 45 29.96 0.0
06 23:35 W 3 10.00 Fair CLR 48.6 30.7 50% 29.96 0.0
06 23:15 W 3 10.00 Fair CLR 48.6 31.8 53% 29.96 0.0
06 22:55 Calm 10.00 Fair CLR 49.1 31.1 50% 29.96 0.0
06 22:35 Calm 10.00 Fair CLR 50 31.6 49% 29.96 0.0
06 22:15 Calm 10.00 Fair CLR 50.4 32 49% 29.96 0.0
06 21:55 Calm 10.00 Fair CLR 50.2 32 50% 29.96 0.0
06 21:35 W 3 10.00 Fair CLR 50.9 31.1 47% 29.96 0.0
06 21:15 W 5 10.00 Fair CLR 51.6 31.5 46% 29.95 0.0
06 20:55 Calm 7.00 Partly Cloudy SCT050 51.8 32.2 47% 29.94 0.0
06 20:35 W 5 10.00 Partly Cloudy SCT050 SCT070 52.7 31.8 45% 29.93 0.0
06 20:15 W 3 10.00 Partly Cloudy SCT055 SCT070 53.6 30.9 42% 29.93 0.0
06 19:55 W 6 10.00 Mostly Cloudy SCT055 BKN070 54.7 28.9 57 54.1 37% 29.93 0.0
06 19:35 W 3 10.00 Mostly Cloudy BKN065 BKN070 55.4 26.8 33% 29.93 0.0
06 19:15 W 9 10.00 Mostly Cloudy SCT060 BKN070 BKN110 55.9 25.3 31% 29.93 0.0
06 18:55 W 9 10.00 Mostly Cloudy BKN060 BKN110 56.8 25.5 30% 29.93 0.0
06 18:35 W 8 10.00 Mostly Cloudy SCT049 SCT060 BKN120 56.7 26.2 31% 29.94 0.0
06 18:15 W 8 10.00 Overcast SCT049 BKN060 OVC120 55.4 26.2 33% 29.94 0.0
06 17:55 W 8 10.00 Overcast SCT049 OVC100 55.6 27.3 34% 29.94 0.0
06 17:35 W 3 10.00 Overcast SCT049 OVC100 55.4 26.8 33% 29.94 0.0
06 17:15 W 6 10.00 Overcast SCT049 OVC090 55.4 27.7 35% 29.93 0.0
06 16:55 NW 6 10.00 Overcast OVC090 55.4 27.7 35% 29.93 0.0
06 16:35 W 6 10.00 Overcast OVC090 55.2 26.2 33% 29.93 0.0
06 16:15 W 3 10.00 Overcast OVC090 55 25.7 32% 29.93 0.0
06 15:55 W 5 10.00 Overcast OVC090 54.9 23.4 29% 29.94 0.0
06 15:35 NW 6 10.00 Overcast OVC090 54.9 23.5 30% 29.94 0.0
06 15:15 W 6 10.00 Overcast OVC090 55 25.9 32% 29.94 0.0
06 14:55 W 3 10.00 Overcast OVC090 54.7 25 32% 29.94 0.0
06 14:35 W 5 10.00 Overcast OVC090 54.1 25.5 33% 29.94 0.0
06 14:15 NW 5 10.00 Overcast BKN090 OVC110 54.5 25 32% 29.94 0.0
06 13:55 NW 5 10.00 Overcast OVC110 54.5 24.4 55.6 45.5 31% 29.94 0.0
06 13:35 Calm 7.00 Mostly Cloudy BKN110 54.1 24.1 31% 29.94 0.0
06 13:15 Calm 10.00 Partly Cloudy SCT120 54.9 25 31% 29.93 0.0
06 12:55 NW 5 10.00 Partly Cloudy SCT120 55 28 36% 29.94 0.0
06 12:35 N 3 10.00 Fair CLR 54.5 27.3 35% 29.94 0.0
06 12:15 Calm 10.00 Fair CLR 54.1 27.7 36% 29.94 0.0
06 11:55 NW 7 10.00 Fair CLR 54.5 28.2 36% 29.93 0.0
06 11:35 NW 7 10.00 Fair CLR 54.1 28.2 37% 29.94 0.0
06 11:15 N 7 10.00 Fair CLR 54 30.6 41% 29.94 0.0
06 10:55 N 3 7.00 Fair CLR 53.4 31.6 44% 29.92 0.0
06 10:35 NW 5 10.00 Fair CLR 52.9 33.3 47% 29.92 0.0
06 10:15 N 6 10.00 Fair CLR 51.8 32 47% 29.91 0.0
06 09:55 N 5 10.00 Fair CLR 51.1 32.5 49% 29.91 0.0
06 09:35 NW 7 10.00 Fair CLR 50.4 33.1 52% 29.91 0.0
06 09:15 NW 6 10.00 Fair CLR 49.8 34.2 55% 48 29.9 0.0
06 08:55 W 3 7.00 Partly Cloudy SCT070 48.2 35.6 62% 29.9 0.0
06 08:35 W 3 10.00 Mostly Cloudy BKN070 46.6 36.1 67% 29.9 0.0
06 08:15 Calm 10.00 Overcast OVC070 46 36.7 70% 29.88 0.0
06 07:55 W 3 10.00 Overcast OVC070 45.5 36.5 45.5 43.7 71% 29.87 0.0 0.04
06 07:35 Calm 10.00 Overcast OVC070 45 36.3 72% 29.86 0.0
06 07:15 Calm 7.00 Overcast OVC070 44.8 36.7 73% 29.85 0.0
06 06:55 Calm 10.00 Overcast OVC060 44.6 35.8 71% 29.83 0.0
06 06:35 Calm 10.00 Overcast OVC060 44.6 35.4 70% 29.83 0.0
06 06:15 Calm 10.00 Overcast OVC060 44.2 35.2 71% 29.83 0.0
06 05:55 Calm 10.00 Overcast OVC050 44.1 34.9 70% 29.83 0.0
06 05:35 Calm 10.00 Overcast OVC050 43.9 35.1 71% 29.82 0.0
06 05:15 Calm 7.00 Overcast OVC050 43.9 34.7 70% 29.81 0.0
06 04:55 Calm 10.00 Overcast OVC050 43.9 34.7 70% 29.83 0.0 0.01 0.04
06 04:35 Calm 10.00 Light Rain BKN050 BKN090 OVC110 43.9 35.4 72% 29.81 0.0 0.01
06 04:15 Calm 10.00 Overcast OVC100 43.7 35.1 72% 29.8 0.0
06 03:55 Calm 10.00 Light Rain SCT080 OVC110 43.9 35.2 72% 29.81 0.0
06 03:35 Calm 7.00 Overcast SCT049 OVC090 43.9 34.9 71% 29.83 0.0
06 03:15 Calm 10.00 Overcast SCT080 OVC100 43.7 35.1 72% 29.81 0.0
06 02:55 Calm 10.00 Overcast OVC100 43.7 34.5 70% 29.79 0.0 0.03
06 02:35 Calm 7.00 Light Rain SCT046 OVC100 43.9 34.3 69% 29.81 0.0 0.03
06 01:55 Calm 7.00 Overcast OVC042 44.8 34.5 47.7 44.8 67% 29.84 0.0 0.02 0.39
06 01:35 Calm 7.00 Overcast BKN040 BKN060 OVC090 45 35.6 70% 29.82 0.0 0.01
06 01:15 N 6 10.00 Light Rain SCT040 BKN065 OVC090 45.5 36 69% 43 29.81 0.0 0.01
06 00:55 N 5 7.00 Light Rain BKN050 BKN060 OVC090 45.5 36 69% 44 29.81 0.0 0.06
06 00:35 N 5 5.00 Light Rain SCT039 OVC050 45.9 37.4 72% 44 29.82 0.0 0.03
06 00:15 N 3 5.00 Light Rain OVC037 46.4 37.9 72% 29.83 0.0 0.01
05 23:55 Calm 10.00 Overcast SCT023 OVC037 46 37.4 72% 29.82 0.0 0.05
05 23:35 Calm 5.00 Rain SCT016 BKN022 OVC037 46.4 37.6 71% 29.81 0.0 0.04
05 23:15 N 7 7.00 Light Rain BKN014 BKN018 OVC033 46.9 37 69% 44 29.82 0.0 0.01
05 22:55 N 7 7.00 Light Rain SCT013 OVC033 47.3 39 73% 44 29.81 0.0 0.03 0.26
05 22:35 N 5 7.00 Overcast SCT019 OVC033 47.3 37.9 70% 46 29.81 0.0 0.03
05 22:15 N 8 7.00 Light Rain SCT006 BKN019 OVC033 47.7 38.1 70% 44 29.81 0.0 0.02
05 21:55 Calm 3.00 Rain SCT009 BKN018 OVC065 47.5 40.3 76% 29.81 0.0 0.12
05 21:35 Calm 3.00 Rain SCT003 BKN014 OVC075 47.3 40.3 77% 29.8 0.0 0.06
05 21:15 Calm 7.00 Rain SCT004 BKN026 OVC090 47.3 40.1 76% 29.78 0.0 0.02
05 20:55 Calm 4.00 Light Rain BKN005 BKN015 OVC050 47.3 40.1 76% 29.79 0.0 0.1
05 20:35 Calm 3.00 Light Rain SCT007 SCT014 OVC040 47.5 39.7 75% 29.81 0.0 0.06
05 20:15 Calm 3.00 Light Rain SCT007 BKN031 OVC040 47.5 39.6 74% 29.8 0.0 0.02
05 19:55 Calm 7.00 Light Rain OVC031 47.7 38.5 53.2 47.7 71% 29.79 0.0 0.07 0.5
05 19:35 N 5 3.00 Rain BKN029 OVC035 48.2 40.1 74% 47 29.79 0.0 0.06
05 19:15 N 6 5.00 Light Rain SCT006 SCT009 OVC029 48.2 39.9 73% 46 29.8 0.0 0.02
05 18:55 N 9 4.00 Light Rain BKN004 BKN009 OVC026 48.7 41.4 76% 45 29.8 0.0 0.09
05 18:35 N 10 3.00 Light Rain OVC004 49.3 41.9 76% 45 29.8 0.0 0.06
05 18:15 N 8 1.00 Light Rain OVC004 50 42.8 76% 47 29.8 0.0 0.04
05 17:55 NW 8 2.00 Overcast with Haze SCT008 OVC014 50 41.9 74% 47 29.79 0.0 0.03
05 17:35 N 9 4.00 Overcast with Haze BKN007 OVC012 50.9 43 74% 29.79 0.0 0.03
05 17:15 N 5 1.50 Overcast with Haze BKN007 OVC010 51.1 43.7 76% 29.78 0.0 0.03
05 16:55 N 9 1.75 Light Rain OVC007 51.3 43.9 76% 29.77 0.0 0.07 0.3
05 16:35 NW 7 2.00 Light Rain OVC005 51.8 43.9 75% 29.77 0.0 0.03
05 16:15 N 6 5.00 Light Rain OVC005 53.1 45 74% 29.76 0.0 0.01
05 15:55 N 6 5.00 Light Rain BKN005 OVC015 52.7 45.1 76% 29.77 0.0 0.14
05 15:35 Calm 2.50 Rain SCT005 OVC013 52 44.4 76% 29.78 0.0 0.11
05 15:15 NW 5 2.50 Rain SCT007 OVC011 52.3 44.4 75% 29.78 0.0 0.05
05 14:35 Calm 5.00 Light Rain SCT018 BKN045 OVC070 52.7 43.9 72% 29.78 0.0 0.06
05 14:15 Calm 3.00 Light Rain BKN015 OVC024 52.9 43.7 71% 29.78 0.0 0.04
05 13:55 Calm 7.00 Light Rain OVC017 53.4 42.6 62.6 53.2 67% 29.79 0.0 0.01 0.01
05 13:35 NW 3 10.00 Overcast OVC019 53.2 42.6 67% 29.79 0.0 0.01
05 13:15 N 5 5.00 Overcast with Haze OVC015 53.4 42.8 67% 29.78 0.0 0.01
05 12:55 NW 7 10.00 Overcast OVC012 54 42.1 64% 29.79 0.0
05 12:35 N 7 7.00 Overcast BKN010 OVC020 54.5 41.7 62% 29.79 0.0
05 12:15 NW 9 5.00 Overcast with Haze SCT010 OVC018 59 49.3 70% 29.79 0.0
05 11:55 W 12 7.00 Overcast OVC016 59.5 49.3 69% 29.79 0.0
05 11:35 W 14 G 18 10.00 Overcast OVC018 60.3 48.4 65% 29.79 0.0
05 11:15 W 16 G 22 10.00 Overcast OVC016 60.6 48.4 64% 29.79 0.0
05 10:55 W 16 G 28 10.00 Overcast OVC018 61 48.2 63% 29.78 0.0
05 10:35 SW 12 G 20 10.00 Overcast BKN020 OVC033 61.5 48 61% 29.76 0.0
05 10:15 SW 15 G 23 10.00 Overcast SCT020 SCT035 OVC042 61.9 47.7 60% 29.76 0.0
05 09:55 SW 17 G 22 10.00 Overcast BKN035 OVC042 62.6 47.7 58% 29.75 0.0
05 09:35 SW 16 G 21 10.00 Overcast OVC037 61.5 46.9 59% 29.74 0.0
05 09:15 SW 15 G 24 7.00 Partly Cloudy SCT040 61.7 47.3 59% 29.75 0.0
05 08:55 SW 18 G 23 10.00 Fair CLR 60.4 46.9 61% 29.73 0.0
05 08:35 SW 14 10.00 Fair CLR 59.9 46.4 61% 29.73 0.0
05 08:15 SW 10 10.00 Partly Cloudy SCT095 59.9 45.7 60% 29.73 0.0
05 07:55 SW 10 10.00 Partly Cloudy SCT095 57.9 45.9 63.1 55.8 64% 29.73 0.0 0.12
05 07:35 SW 7 7.00 Fair CLR 56.3 45.9 68% 29.73 0.0
05 07:15 SW 7 10.00 Fair CLR 56.3 45.7 68% 29.72 0.0
05 06:55 SW 8 10.00 Fair CLR 55.9 45.9 69% 29.73 0.0
05 06:35 SW 8 10.00 Fair CLR 56.7 46 68% 29.7 0.0
05 06:15 S 8 G 17 10.00 Fair CLR 57.4 45.5 65% 29.68 0.0
05 05:55 S 12 G 15 10.00 Fair CLR 57.2 45.9 66% 29.67 0.0
05 05:35 S 12 G 18 10.00 Partly Cloudy SCT120 56.7 46.6 69% 29.65 0.0
05 05:15 S 16 G 24 10.00 Partly Cloudy SCT080 SCT100 56.7 46.6 69% 29.66 0.0
05 04:55 S 15 G 20 7.00 Light Rain BKN080 BKN090 BKN110 56.8 46.6 69% 29.65 0.0 0.06 0.12
05 04:35 SW 16 G 24 7.00 Light Rain OVC070 57.7 46.6 67% 29.7 0.0 0.05
05 04:15 S 14 7.00 Light Rain OVC080 56.8 48.2 73% 29.7 0.0 0.03
05 03:55 S 10 7.00 Light Rain SCT060 OVC080 57.2 48 72% 29.7 0.0 0.03
05 03:35 SW 14 10.00 Overcast BKN085 OVC110 57.4 48.2 72% 29.73 0.0
05 03:15 SW 7 10.00 Overcast BKN085 OVC110 57.6 48.2 71% 29.72 0.0
05 02:55 W 9 7.00 Rain SCT050 OVC095 58.1 47.8 69% 29.73 0.0 0.02
05 02:35 W 13 G 17 10.00 Light Rain SCT048 BKN050 OVC065 59.2 47.3 65% 29.73 0.0 0.01
05 02:15 W 10 10.00 Overcast BKN055 OVC085 59.9 47.3 63% 29.73 0.0 0.01
05 01:55 W 13 G 26 7.00 Overcast BKN055 BKN065 OVC095 64 42.4 71.1 64 46% 29.72 0.0
05 01:35 W 12 G 20 10.00 Overcast SCT065 BKN075 OVC090 66.4 39.9 38% 29.68 0.0
05 01:15 SW 13 G 23 10.00 Mostly Cloudy SCT075 BKN085 BKN110 67.1 39.4 36% 29.65 0.0
05 00:55 SW 16 G 22 10.00 Mostly Cloudy SCT075 SCT100 BKN120 67.1 39.2 36% 29.63 0.0
05 00:35 SW 16 G 21 10.00 Partly Cloudy SCT080 67.1 39.2 36% 29.62 0.0
05 00:15 S 14 G 18 10.00 Partly Cloudy SCT080 SCT100 67.5 39.4 36% 29.63 0.0
04 23:55 SW 13 G 20 10.00 Overcast OVC080 68.2 39.2 35% 29.64 0.0
04 23:15 S 15 G 21 10.00 Overcast OVC090 68.9 38.7 33% 29.65 0.0
04 22:55 S 12 G 20 7.00 Overcast SCT080 OVC100 68.9 38.5 33% 29.64 0.0
04 22:35 S 12 G 20 10.00 Mostly Cloudy SCT085 BKN100 68.9 37.8 32% 29.65 0.0
04 22:15 S 12 10.00 Overcast SCT085 OVC100 69.3 37.4 31% 29.64 0.0
04 21:55 S 10 10.00 Overcast OVC100 68.9 37.6 32% 29.63 0.0
04 21:35 S 9 10.00 Overcast OVC100 69.6 37.2 31% 29.63 0.0
04 21:15 SW 13 G 17 10.00 Overcast OVC100 70 37 30% 29.63 0.0
04 20:55 SW 12 7.00 Mostly Cloudy BKN100 70 37.8 31% 29.63 0.0
04 20:35 SW 13 G 17 10.00 Mostly Cloudy BKN110 70 39 32% 29.62 0.0
04 20:15 S 10 10.00 Mostly Cloudy BKN110 70.7 39.7 33% 29.62 0.0
04 19:55 S 13 G 18 10.00 Overcast OVC110 70.7 40.3 76.1 70 33% 29.62 0.0
04 19:35 S 15 G 21 7.00 Overcast OVC100 70.7 40.5 33% 29.63 0.0
04 18:55 SW 14 G 26 7.00 Fair CLR 70.5 39.4 32% 29.65 0.0
04 18:35 SW 18 G 23 10.00 Partly Cloudy SCT090 71.8 38.8 30% 29.65 0.0
04 18:15 SW 17 G 30 10.00 Fair CLR 72.3 36.5 27% 29.66 0.0
04 17:55 SW 26 G 37 10.00 Fair and Windy CLR 74.5 32.7 22% 29.66 0.0
04 17:35 SW 23 G 29 10.00 Fair and Breezy CLR 76.1 31.5 19% 76 29.65 0.0
04 17:15 SW 24 G 31 10.00 Partly Cloudy and Breezy SCT100 75.2 32.9 21% 76 29.65 0.0
04 16:55 SW 20 G 25 10.00 Mostly Cloudy BKN100 73.6 35.4 25% 29.66 0.0
04 16:35 SW 22 G 32 7.00 Partly Cloudy and Breezy SCT100 74.5 36.1 25% 29.66 0.0
04 16:15 SW 24 G 33 10.00 Partly Cloudy and Breezy SCT100 74.3 35.8 25% 29.66 0.0
04 15:55 SW 25 G 35 10.00 Partly Cloudy and Breezy SCT100 74.8 34.7 23% 29.67 0.0
04 15:35 SW 32 G 38 10.00 Partly Cloudy and Windy SCT060 SCT090 76.1 36.7 24% 77 29.68 0.0
04 15:15 SW 21 G 37 10.00 Fair and Breezy CLR 75.6 38.5 26% 77 29.68 0.0
Date Time (edt) Wind (mph) Vis. (mi.) Weather Sky Cond. Air Dwpt Max. Min. Relative Humidity Wind Chill (°F) Heat Index (°F) altimeter (in) sea level (mb) 1 hr 3 hr 6 hr
6 hour
Temperature (ºF) Pressure Precipitation (in)